sensor_id;sensor_type;location;lat;lon;timestamp;temperature;humidity
16479;DHT22;8350;52.316;10.530;2023-12-20T00:01:01;6.80;99.90
16479;DHT22;8350;52.316;10.530;2023-12-20T00:03:28;6.80;99.90
16479;DHT22;8350;52.316;10.530;2023-12-20T00:05:57;6.80;99.90
16479;DHT22;8350;52.316;10.530;2023-12-20T00:08:26;6.80;99.90
16479;DHT22;8350;52.316;10.530;2023-12-20T00:11:07;6.80;99.90
16479;DHT22;8350;52.316;10.530;2023-12-20T00:13:37;6.80;99.90
16479;DHT22;8350;52.316;10.530;2023-12-20T00:16:05;6.80;99.90
16479;DHT22;8350;52.316;10.530;2023-12-20T00:18:32;6.80;99.90
16479;DHT22;8350;52.316;10.530;2023-12-20T00:20:59;6.80;99.90
16479;DHT22;8350;52.316;10.530;2023-12-20T00:23:26;6.80;99.90
16479;DHT22;8350;52.316;10.530;2023-12-20T00:25:52;6.80;99.90
16479;DHT22;8350;52.316;10.530;2023-12-20T00:28:19;6.50;99.90
16479;DHT22;8350;52.316;10.530;2023-12-20T00:30:48;6.30;99.90
16479;DHT22;8350;52.316;10.530;2023-12-20T00:33:15;6.20;99.90
16479;DHT22;8350;52.316;10.530;2023-12-20T00:35:44;6.10;99.90
16479;DHT22;8350;52.316;10.530;2023-12-20T00:38:11;6.00;99.90
16479;DHT22;8350;52.316;10.530;2023-12-20T00:40:40;6.00;99.90
16479;DHT22;8350;52.316;10.530;2023-12-20T00:43:06;6.00;99.90
16479;DHT22;8350;52.316;10.530;2023-12-20T00:45:33;6.00;99.90
16479;DHT22;8350;52.316;10.530;2023-12-20T00:48:03;6.00;99.90
16479;DHT22;8350;52.316;10.530;2023-12-20T00:50:30;6.00;99.90
16479;DHT22;8350;52.316;10.530;2023-12-20T00:52:57;6.00;99.90
16479;DHT22;8350;52.316;10.530;2023-12-20T00:55:26;6.10;99.90
16479;DHT22;8350;52.316;10.530;2023-12-20T00:58:09;6.10;99.90
16479;DHT22;8350;52.316;10.530;2023-12-20T01:00:36;6.10;99.90
16479;DHT22;8350;52.316;10.530;2023-12-20T01:03:05;6.10;99.90
16479;DHT22;8350;52.316;10.530;2023-12-20T01:05:32;6.10;99.90
16479;DHT22;8350;52.316;10.530;2023-12-20T01:07:59;6.10;99.90
16479;DHT22;8350;52.316;10.530;2023-12-20T01:10:28;6.20;99.90
16479;DHT22;8350;52.316;10.530;2023-12-20T01:12:55;6.10;99.90
16479;DHT22;8350;52.316;10.530;2023-12-20T01:15:22;6.10;99.90
16479;DHT22;8350;52.316;10.530;2023-12-20T01:17:52;6.20;99.90
16479;DHT22;8350;52.316;10.530;2023-12-20T01:20:21;6.10;99.90
16479;DHT22;8350;52.316;10.530;2023-12-20T01:22:47;6.10;99.90
16479;DHT22;8350;52.316;10.530;2023-12-20T01:25:15;6.10;99.90
16479;DHT22;8350;52.316;10.530;2023-12-20T01:27:42;6.00;99.90
16479;DHT22;8350;52.316;10.530;2023-12-20T01:30:09;6.00;99.90
16479;DHT22;8350;52.316;10.530;2023-12-20T01:32:38;6.00;99.90
16479;DHT22;8350;52.316;10.530;2023-12-20T01:35:06;6.00;99.90
16479;DHT22;8350;52.316;10.530;2023-12-20T01:37:37;6.00;99.90
16479;DHT22;8350;52.316;10.530;2023-12-20T01:40:05;6.00;99.90
16479;DHT22;8350;52.316;10.530;2023-12-20T01:42:33;6.00;99.90
16479;DHT22;8350;52.316;10.530;2023-12-20T01:45:00;6.00;99.90
16479;DHT22;8350;52.316;10.530;2023-12-20T01:47:27;6.10;99.90
16479;DHT22;8350;52.316;10.530;2023-12-20T01:49:55;6.10;99.90
16479;DHT22;8350;52.316;10.530;2023-12-20T01:52:22;6.10;99.90
16479;DHT22;8350;52.316;10.530;2023-12-20T01:54:51;6.00;99.90
16479;DHT22;8350;52.316;10.530;2023-12-20T01:57:20;6.00;99.90
16479;DHT22;8350;52.316;10.530;2023-12-20T01:59:47;6.00;99.90
16479;DHT22;8350;52.316;10.530;2023-12-20T02:02:14;6.00;99.90
16479;DHT22;8350;52.316;10.530;2023-12-20T02:04:41;5.90;99.90
16479;DHT22;8350;52.316;10.530;2023-12-20T02:07:09;6.00;99.90
16479;DHT22;8350;52.316;10.530;2023-12-20T02:09:36;5.90;99.90
16479;DHT22;8350;52.316;10.530;2023-12-20T02:12:05;6.00;99.90
16479;DHT22;8350;52.316;10.530;2023-12-20T02:14:43;5.90;99.90
16479;DHT22;8350;52.316;10.530;2023-12-20T02:17:10;5.90;99.90
16479;DHT22;8350;52.316;10.530;2023-12-20T02:19:36;5.90;99.90
16479;DHT22;8350;52.316;10.530;2023-12-20T02:22:09;5.90;99.90
16479;DHT22;8350;52.316;10.530;2023-12-20T02:24:36;5.90;99.90
16479;DHT22;8350;52.316;10.530;2023-12-20T02:27:03;5.90;99.90
16479;DHT22;8350;52.316;10.530;2023-12-20T02:29:32;5.90;99.90
16479;DHT22;8350;52.316;10.530;2023-12-20T02:31:59;5.90;99.90
16479;DHT22;8350;52.316;10.530;2023-12-20T02:34:26;5.90;99.90
16479;DHT22;8350;52.316;10.530;2023-12-20T02:36:53;5.90;99.90
16479;DHT22;8350;52.316;10.530;2023-12-20T02:39:23;5.80;99.90
16479;DHT22;8350;52.316;10.530;2023-12-20T02:41:52;5.80;99.90
16479;DHT22;8350;52.316;10.530;2023-12-20T02:44:19;5.80;99.90
16479;DHT22;8350;52.316;10.530;2023-12-20T02:46:46;5.80;99.90
16479;DHT22;8350;52.316;10.530;2023-12-20T02:49:14;5.70;99.90
16479;DHT22;8350;52.316;10.530;2023-12-20T02:51:41;5.70;99.90
16479;DHT22;8350;52.316;10.530;2023-12-20T02:54:08;5.70;99.90
16479;DHT22;8350;52.316;10.530;2023-12-20T02:56:36;5.60;99.90
16479;DHT22;8350;52.316;10.530;2023-12-20T02:59:04;5.50;99.90
16479;DHT22;8350;52.316;10.530;2023-12-20T03:01:31;5.50;99.90
16479;DHT22;8350;52.316;10.530;2023-12-20T03:03:58;5.50;99.90
16479;DHT22;8350;52.316;10.530;2023-12-20T03:06:25;5.40;99.90
16479;DHT22;8350;52.316;10.530;2023-12-20T03:08:52;5.40;99.90
16479;DHT22;8350;52.316;10.530;2023-12-20T03:11:19;5.40;99.90
16479;DHT22;8350;52.316;10.530;2023-12-20T03:13:47;5.40;99.90
16479;DHT22;8350;52.316;10.530;2023-12-20T03:16:14;5.40;99.90
16479;DHT22;8350;52.316;10.530;2023-12-20T03:18:42;5.40;99.90
16479;DHT22;8350;52.316;10.530;2023-12-20T03:21:09;5.40;99.90
16479;DHT22;8350;52.316;10.530;2023-12-20T03:23:36;5.40;99.90
16479;DHT22;8350;52.316;10.530;2023-12-20T03:26:03;5.30;99.90
16479;DHT22;8350;52.316;10.530;2023-12-20T03:28:33;5.30;99.90
16479;DHT22;8350;52.316;10.530;2023-12-20T03:31:01;5.30;99.90
16479;DHT22;8350;52.316;10.530;2023-12-20T03:33:28;5.30;99.90
16479;DHT22;8350;52.316;10.530;2023-12-20T03:35:55;5.30;99.90
16479;DHT22;8350;52.316;10.530;2023-12-20T03:38:22;5.30;99.90
16479;DHT22;8350;52.316;10.530;2023-12-20T03:40:50;5.20;99.90
16479;DHT22;8350;52.316;10.530;2023-12-20T03:43:16;5.20;99.90
16479;DHT22;8350;52.316;10.530;2023-12-20T03:45:43;5.20;99.90
16479;DHT22;8350;52.316;10.530;2023-12-20T03:48:14;5.20;99.90
16479;DHT22;8350;52.316;10.530;2023-12-20T03:50:41;5.10;99.90
16479;DHT22;8350;52.316;10.530;2023-12-20T03:53:13;5.10;99.90
16479;DHT22;8350;52.316;10.530;2023-12-20T03:55:40;5.10;99.90
16479;DHT22;8350;52.316;10.530;2023-12-20T03:58:07;5.00;99.90
16479;DHT22;8350;52.316;10.530;2023-12-20T04:00:34;5.00;99.90
16479;DHT22;8350;52.316;10.530;2023-12-20T04:03:01;4.90;99.90
16479;DHT22;8350;52.316;10.530;2023-12-20T04:05:29;4.90;99.90
16479;DHT22;8350;52.316;10.530;2023-12-20T04:07:56;4.90;99.90
16479;DHT22;8350;52.316;10.530;2023-12-20T04:10:23;4.90;99.90
16479;DHT22;8350;52.316;10.530;2023-12-20T04:12:50;4.90;99.90
16479;DHT22;8350;52.316;10.530;2023-12-20T04:15:17;4.80;99.90
16479;DHT22;8350;52.316;10.530;2023-12-20T04:17:44;4.80;99.90
16479;DHT22;8350;52.316;10.530;2023-12-20T04:20:11;4.80;99.90
16479;DHT22;8350;52.316;10.530;2023-12-20T04:22:39;4.80;99.90
16479;DHT22;8350;52.316;10.530;2023-12-20T04:25:06;4.80;99.90
16479;DHT22;8350;52.316;10.530;2023-12-20T04:27:44;4.80;99.90
16479;DHT22;8350;52.316;10.530;2023-12-20T04:30:11;4.70;99.90
16479;DHT22;8350;52.316;10.530;2023-12-20T04:32:38;4.70;99.90
16479;DHT22;8350;52.316;10.530;2023-12-20T04:35:06;4.70;99.90
16479;DHT22;8350;52.316;10.530;2023-12-20T04:37:34;4.70;99.90
16479;DHT22;8350;52.316;10.530;2023-12-20T04:40:09;4.70;99.90
16479;DHT22;8350;52.316;10.530;2023-12-20T04:42:36;4.70;99.90
16479;DHT22;8350;52.316;10.530;2023-12-20T04:45:03;4.70;99.90
16479;DHT22;8350;52.316;10.530;2023-12-20T04:47:30;4.80;99.90
16479;DHT22;8350;52.316;10.530;2023-12-20T04:49:57;4.80;99.90
16479;DHT22;8350;52.316;10.530;2023-12-20T04:52:24;4.90;99.90
16479;DHT22;8350;52.316;10.530;2023-12-20T04:54:51;4.90;99.90
16479;DHT22;8350;52.316;10.530;2023-12-20T04:57:20;4.80;99.90
16479;DHT22;8350;52.316;10.530;2023-12-20T04:59:47;4.90;99.90
16479;DHT22;8350;52.316;10.530;2023-12-20T05:02:14;4.90;99.90
16479;DHT22;8350;52.316;10.530;2023-12-20T05:04:41;5.00;99.90
16479;DHT22;8350;52.316;10.530;2023-12-20T05:07:08;5.00;99.90
16479;DHT22;8350;52.316;10.530;2023-12-20T05:09:35;5.00;99.90
16479;DHT22;8350;52.316;10.530;2023-12-20T05:12:02;5.00;99.90
16479;DHT22;8350;52.316;10.530;2023-12-20T05:14:31;5.00;99.90
16479;DHT22;8350;52.316;10.530;2023-12-20T05:16:58;5.00;99.90
16479;DHT22;8350;52.316;10.530;2023-12-20T05:19:25;5.00;99.90
16479;DHT22;8350;52.316;10.530;2023-12-20T05:21:52;5.00;99.90
16479;DHT22;8350;52.316;10.530;2023-12-20T05:24:19;5.00;99.90
16479;DHT22;8350;52.316;10.530;2023-12-20T05:26:47;5.00;99.90
16479;DHT22;8350;52.316;10.530;2023-12-20T05:29:14;5.20;99.90
16479;DHT22;8350;52.316;10.530;2023-12-20T05:31:42;5.20;99.90
16479;DHT22;8350;52.316;10.530;2023-12-20T05:34:09;5.30;99.90
16479;DHT22;8350;52.316;10.530;2023-12-20T05:36:36;5.30;99.90
16479;DHT22;8350;52.316;10.530;2023-12-20T05:39:03;5.30;99.90
16479;DHT22;8350;52.316;10.530;2023-12-20T05:41:30;5.40;99.90
16479;DHT22;8350;52.316;10.530;2023-12-20T05:43:57;5.40;99.90
16479;DHT22;8350;52.316;10.530;2023-12-20T05:46:24;5.50;99.90
16479;DHT22;8350;52.316;10.530;2023-12-20T05:48:53;5.50;99.90
16479;DHT22;8350;52.316;10.530;2023-12-20T05:51:23;5.50;99.90
16479;DHT22;8350;52.316;10.530;2023-12-20T05:53:51;5.50;99.90
16479;DHT22;8350;52.316;10.530;2023-12-20T05:56:20;5.60;99.90
16479;DHT22;8350;52.316;10.530;2023-12-20T05:58:47;5.60;99.90
16479;DHT22;8350;52.316;10.530;2023-12-20T06:01:14;5.70;99.90
16479;DHT22;8350;52.316;10.530;2023-12-20T06:03:42;5.70;99.90
16479;DHT22;8350;52.316;10.530;2023-12-20T06:06:11;5.60;99.90
16479;DHT22;8350;52.316;10.530;2023-12-20T06:08:38;5.70;99.90
16479;DHT22;8350;52.316;10.530;2023-12-20T06:11:05;5.70;99.90
16479;DHT22;8350;52.316;10.530;2023-12-20T06:13:32;5.70;99.90
16479;DHT22;8350;52.316;10.530;2023-12-20T06:15:59;5.80;99.90
16479;DHT22;8350;52.316;10.530;2023-12-20T06:18:26;5.80;99.90
16479;DHT22;8350;52.316;10.530;2023-12-20T06:20:52;5.70;99.90
16479;DHT22;8350;52.316;10.530;2023-12-20T06:23:23;5.80;99.90
16479;DHT22;8350;52.316;10.530;2023-12-20T06:25:53;5.80;99.90
16479;DHT22;8350;52.316;10.530;2023-12-20T06:28:20;5.70;99.90
16479;DHT22;8350;52.316;10.530;2023-12-20T06:30:47;5.80;99.90
16479;DHT22;8350;52.316;10.530;2023-12-20T06:33:15;5.80;99.90
16479;DHT22;8350;52.316;10.530;2023-12-20T06:35:44;5.80;99.90
16479;DHT22;8350;52.316;10.530;2023-12-20T06:38:11;5.80;99.90
16479;DHT22;8350;52.316;10.530;2023-12-20T06:40:39;5.80;99.90
16479;DHT22;8350;52.316;10.530;2023-12-20T06:43:06;5.80;99.90
16479;DHT22;8350;52.316;10.530;2023-12-20T06:45:33;5.80;99.90
16479;DHT22;8350;52.316;10.530;2023-12-20T06:48:00;5.80;99.90
16479;DHT22;8350;52.316;10.530;2023-12-20T06:50:27;5.80;99.90
16479;DHT22;8350;52.316;10.530;2023-12-20T06:52:54;5.90;99.90
16479;DHT22;8350;52.316;10.530;2023-12-20T06:55:22;5.90;99.90
16479;DHT22;8350;52.316;10.530;2023-12-20T06:57:50;5.90;99.90
16479;DHT22;8350;52.316;10.530;2023-12-20T07:00:17;5.90;99.90
16479;DHT22;8350;52.316;10.530;2023-12-20T07:02:46;5.90;99.90
16479;DHT22;8350;52.316;10.530;2023-12-20T07:05:16;5.90;99.90
16479;DHT22;8350;52.316;10.530;2023-12-20T07:07:45;5.90;99.90
16479;DHT22;8350;52.316;10.530;2023-12-20T07:10:12;5.90;99.90
16479;DHT22;8350;52.316;10.530;2023-12-20T07:12:39;5.90;99.90
16479;DHT22;8350;52.316;10.530;2023-12-20T07:15:08;5.90;99.90
16479;DHT22;8350;52.316;10.530;2023-12-20T07:17:35;6.00;99.90
16479;DHT22;8350;52.316;10.530;2023-12-20T07:20:02;6.00;99.90
16479;DHT22;8350;52.316;10.530;2023-12-20T07:22:33;6.00;99.90
16479;DHT22;8350;52.316;10.530;2023-12-20T07:25:00;6.00;99.90
16479;DHT22;8350;52.316;10.530;2023-12-20T07:27:27;6.00;99.90
16479;DHT22;8350;52.316;10.530;2023-12-20T07:29:54;6.00;99.90
16479;DHT22;8350;52.316;10.530;2023-12-20T07:32:22;6.00;99.90
16479;DHT22;8350;52.316;10.530;2023-12-20T07:34:49;6.00;99.90
16479;DHT22;8350;52.316;10.530;2023-12-20T07:37:16;6.00;99.90
16479;DHT22;8350;52.316;10.530;2023-12-20T07:39:43;5.90;99.90
16479;DHT22;8350;52.316;10.530;2023-12-20T07:42:10;5.90;99.90
16479;DHT22;8350;52.316;10.530;2023-12-20T07:44:37;5.90;99.90
16479;DHT22;8350;52.316;10.530;2023-12-20T07:47:04;5.90;99.90
16479;DHT22;8350;52.316;10.530;2023-12-20T07:49:32;5.80;99.90
16479;DHT22;8350;52.316;10.530;2023-12-20T07:51:59;5.80;99.90
16479;DHT22;8350;52.316;10.530;2023-12-20T07:54:28;5.80;99.90
16479;DHT22;8350;52.316;10.530;2023-12-20T07:56:56;5.90;99.90
16479;DHT22;8350;52.316;10.530;2023-12-20T07:59:23;5.90;99.90
16479;DHT22;8350;52.316;10.530;2023-12-20T08:01:52;5.80;99.90
16479;DHT22;8350;52.316;10.530;2023-12-20T08:04:18;5.80;99.90
16479;DHT22;8350;52.316;10.530;2023-12-20T08:06:50;5.80;99.90
16479;DHT22;8350;52.316;10.530;2023-12-20T08:09:17;5.70;99.90
16479;DHT22;8350;52.316;10.530;2023-12-20T08:11:45;5.80;99.90
16479;DHT22;8350;52.316;10.530;2023-12-20T08:14:12;5.80;99.90
16479;DHT22;8350;52.316;10.530;2023-12-20T08:16:39;5.90;99.90
16479;DHT22;8350;52.316;10.530;2023-12-20T08:19:08;5.90;99.90
16479;DHT22;8350;52.316;10.530;2023-12-20T08:21:35;6.00;99.90
16479;DHT22;8350;52.316;10.530;2023-12-20T08:24:03;6.00;99.90
16479;DHT22;8350;52.316;10.530;2023-12-20T08:26:30;6.00;99.90
16479;DHT22;8350;52.316;10.530;2023-12-20T08:28:57;6.00;99.90
16479;DHT22;8350;52.316;10.530;2023-12-20T08:31:24;6.00;99.90
16479;DHT22;8350;52.316;10.530;2023-12-20T08:33:52;6.10;99.90
16479;DHT22;8350;52.316;10.530;2023-12-20T08:36:21;6.10;99.90
16479;DHT22;8350;52.316;10.530;2023-12-20T08:38:48;6.00;99.90
16479;DHT22;8350;52.316;10.530;2023-12-20T08:41:17;6.00;99.90
16479;DHT22;8350;52.316;10.530;2023-12-20T08:43:46;6.00;99.90
16479;DHT22;8350;52.316;10.530;2023-12-20T08:46:14;6.00;99.90
16479;DHT22;8350;52.316;10.530;2023-12-20T08:48:41;5.90;99.90
16479;DHT22;8350;52.316;10.530;2023-12-20T08:51:08;5.90;99.90
16479;DHT22;8350;52.316;10.530;2023-12-20T08:53:46;5.90;99.90
16479;DHT22;8350;52.316;10.530;2023-12-20T08:56:13;6.00;99.90
16479;DHT22;8350;52.316;10.530;2023-12-20T08:58:41;6.00;99.90
16479;DHT22;8350;52.316;10.530;2023-12-20T09:01:08;6.00;99.90
16479;DHT22;8350;52.316;10.530;2023-12-20T09:03:35;6.00;99.90
16479;DHT22;8350;52.316;10.530;2023-12-20T09:06:02;6.00;99.90
16479;DHT22;8350;52.316;10.530;2023-12-20T09:08:31;6.10;99.90
16479;DHT22;8350;52.316;10.530;2023-12-20T09:10:59;6.10;99.90
16479;DHT22;8350;52.316;10.530;2023-12-20T09:13:26;6.10;99.90
16479;DHT22;8350;52.316;10.530;2023-12-20T09:15:55;6.10;99.90
16479;DHT22;8350;52.316;10.530;2023-12-20T09:18:23;6.20;99.90
16479;DHT22;8350;52.316;10.530;2023-12-20T09:20:51;6.20;99.90
16479;DHT22;8350;52.316;10.530;2023-12-20T09:23:18;6.30;99.90
16479;DHT22;8350;52.316;10.530;2023-12-20T09:25:45;6.40;99.90
16479;DHT22;8350;52.316;10.530;2023-12-20T09:28:12;6.40;99.90
16479;DHT22;8350;52.316;10.530;2023-12-20T09:30:39;6.40;99.90
16479;DHT22;8350;52.316;10.530;2023-12-20T09:33:08;6.40;99.90
16479;DHT22;8350;52.316;10.530;2023-12-20T09:35:35;6.40;99.90
16479;DHT22;8350;52.316;10.530;2023-12-20T09:38:03;6.50;99.90
16479;DHT22;8350;52.316;10.530;2023-12-20T09:40:32;6.50;99.90
16479;DHT22;8350;52.316;10.530;2023-12-20T09:43:03;6.60;99.90
16479;DHT22;8350;52.316;10.530;2023-12-20T09:45:31;6.60;99.90
16479;DHT22;8350;52.316;10.530;2023-12-20T09:47:58;6.60;99.90
16479;DHT22;8350;52.316;10.530;2023-12-20T09:50:27;6.60;99.90
16479;DHT22;8350;52.316;10.530;2023-12-20T09:52:57;6.70;99.90
16479;DHT22;8350;52.316;10.530;2023-12-20T09:55:27;6.70;99.90
16479;DHT22;8350;52.316;10.530;2023-12-20T09:57:54;6.70;99.90
16479;DHT22;8350;52.316;10.530;2023-12-20T10:00:21;6.60;99.90
16479;DHT22;8350;52.316;10.530;2023-12-20T10:02:50;6.70;99.90
16479;DHT22;8350;52.316;10.530;2023-12-20T10:05:17;6.60;99.90
16479;DHT22;8350;52.316;10.530;2023-12-20T10:07:52;6.60;99.90
16479;DHT22;8350;52.316;10.530;2023-12-20T10:10:21;6.60;99.90
16479;DHT22;8350;52.316;10.530;2023-12-20T10:13:04;6.60;99.90
16479;DHT22;8350;52.316;10.530;2023-12-20T10:15:36;6.60;99.90
16479;DHT22;8350;52.316;10.530;2023-12-20T10:18:06;6.70;99.90
16479;DHT22;8350;52.316;10.530;2023-12-20T10:20:33;6.70;99.90
16479;DHT22;8350;52.316;10.530;2023-12-20T10:23:06;6.80;99.90
16479;DHT22;8350;52.316;10.530;2023-12-20T10:25:32;6.70;99.90
16479;DHT22;8350;52.316;10.530;2023-12-20T10:28:10;6.80;99.90
16479;DHT22;8350;52.316;10.530;2023-12-20T10:30:37;6.80;99.90
16479;DHT22;8350;52.316;10.530;2023-12-20T10:33:05;6.80;99.90
16479;DHT22;8350;52.316;10.530;2023-12-20T10:35:34;6.90;99.90
16479;DHT22;8350;52.316;10.530;2023-12-20T10:38:04;6.90;99.90
16479;DHT22;8350;52.316;10.530;2023-12-20T10:40:31;7.00;99.90
16479;DHT22;8350;52.316;10.530;2023-12-20T10:42:59;7.00;99.90
16479;DHT22;8350;52.316;10.530;2023-12-20T10:45:27;7.00;99.90
16479;DHT22;8350;52.316;10.530;2023-12-20T10:47:55;7.00;99.90
16479;DHT22;8350;52.316;10.530;2023-12-20T10:50:23;7.00;99.90
16479;DHT22;8350;52.316;10.530;2023-12-20T10:52:50;6.90;99.90
16479;DHT22;8350;52.316;10.530;2023-12-20T10:55:25;7.00;99.90
16479;DHT22;8350;52.316;10.530;2023-12-20T10:57:52;7.00;99.90
16479;DHT22;8350;52.316;10.530;2023-12-20T11:00:21;7.00;99.90
16479;DHT22;8350;52.316;10.530;2023-12-20T11:02:49;7.00;99.90
16479;DHT22;8350;52.316;10.530;2023-12-20T11:05:25;7.10;99.90
16479;DHT22;8350;52.316;10.530;2023-12-20T11:07:58;7.10;99.90
16479;DHT22;8350;52.316;10.530;2023-12-20T11:10:33;7.20;99.90
16479;DHT22;8350;52.316;10.530;2023-12-20T11:13:08;7.20;99.90
16479;DHT22;8350;52.316;10.530;2023-12-20T11:15:38;7.10;99.90
16479;DHT22;8350;52.316;10.530;2023-12-20T11:18:05;7.10;99.90
16479;DHT22;8350;52.316;10.530;2023-12-20T11:20:40;7.10;99.90
16479;DHT22;8350;52.316;10.530;2023-12-20T11:23:08;7.00;99.90
16479;DHT22;8350;52.316;10.530;2023-12-20T11:25:48;7.00;99.90
16479;DHT22;8350;52.316;10.530;2023-12-20T11:28:21;7.00;99.90
16479;DHT22;8350;52.316;10.530;2023-12-20T11:30:51;7.00;99.90
16479;DHT22;8350;52.316;10.530;2023-12-20T11:33:22;7.00;99.90
16479;DHT22;8350;52.316;10.530;2023-12-20T11:35:49;7.00;99.90
16479;DHT22;8350;52.316;10.530;2023-12-20T11:38:23;7.00;99.90
16479;DHT22;8350;52.316;10.530;2023-12-20T11:40:54;7.00;99.90
16479;DHT22;8350;52.316;10.530;2023-12-20T11:43:30;7.00;99.90
16479;DHT22;8350;52.316;10.530;2023-12-20T11:46:03;7.00;99.90
16479;DHT22;8350;52.316;10.530;2023-12-20T11:48:36;7.00;99.90
16479;DHT22;8350;52.316;10.530;2023-12-20T11:51:09;7.00;99.90
16479;DHT22;8350;52.316;10.530;2023-12-20T11:53:36;6.90;99.90
16479;DHT22;8350;52.316;10.530;2023-12-20T11:56:06;6.90;99.90
16479;DHT22;8350;52.316;10.530;2023-12-20T11:58:34;6.90;99.90
16479;DHT22;8350;52.316;10.530;2023-12-20T12:01:01;6.80;99.90
16479;DHT22;8350;52.316;10.530;2023-12-20T12:03:30;6.70;99.90
16479;DHT22;8350;52.316;10.530;2023-12-20T12:05:59;6.70;99.90
16479;DHT22;8350;52.316;10.530;2023-12-20T12:08:27;6.60;99.90
16479;DHT22;8350;52.316;10.530;2023-12-20T12:10:54;6.60;99.90
16479;DHT22;8350;52.316;10.530;2023-12-20T12:13:23;6.50;99.90
16479;DHT22;8350;52.316;10.530;2023-12-20T12:15:54;6.50;99.90
16479;DHT22;8350;52.316;10.530;2023-12-20T12:18:21;6.50;99.90
16479;DHT22;8350;52.316;10.530;2023-12-20T12:20:48;6.50;99.90
16479;DHT22;8350;52.316;10.530;2023-12-20T12:23:23;6.50;99.90
16479;DHT22;8350;52.316;10.530;2023-12-20T12:25:53;6.40;99.90
16479;DHT22;8350;52.316;10.530;2023-12-20T12:28:23;6.40;99.90
16479;DHT22;8350;52.316;10.530;2023-12-20T12:30:57;6.40;99.90
16479;DHT22;8350;52.316;10.530;2023-12-20T12:33:24;6.40;99.90
16479;DHT22;8350;52.316;10.530;2023-12-20T12:35:51;6.40;99.90
16479;DHT22;8350;52.316;10.530;2023-12-20T12:38:20;6.40;99.90
16479;DHT22;8350;52.316;10.530;2023-12-20T12:40:47;6.30;99.90
16479;DHT22;8350;52.316;10.530;2023-12-20T12:43:14;6.30;99.90
16479;DHT22;8350;52.316;10.530;2023-12-20T12:45:42;6.30;99.90
16479;DHT22;8350;52.316;10.530;2023-12-20T12:48:13;6.30;99.90
16479;DHT22;8350;52.316;10.530;2023-12-20T12:50:41;6.30;99.90
16479;DHT22;8350;52.316;10.530;2023-12-20T12:53:23;6.30;99.90
16479;DHT22;8350;52.316;10.530;2023-12-20T12:55:52;6.20;99.90
16479;DHT22;8350;52.316;10.530;2023-12-20T12:58:19;6.20;99.90
16479;DHT22;8350;52.316;10.530;2023-12-20T13:00:47;6.20;99.90
16479;DHT22;8350;52.316;10.530;2023-12-20T13:03:14;6.20;99.90
16479;DHT22;8350;52.316;10.530;2023-12-20T13:05:42;6.20;99.90
16479;DHT22;8350;52.316;10.530;2023-12-20T13:08:09;6.20;99.90
16479;DHT22;8350;52.316;10.530;2023-12-20T13:10:46;6.20;99.90
16479;DHT22;8350;52.316;10.530;2023-12-20T13:13:13;6.20;99.90
16479;DHT22;8350;52.316;10.530;2023-12-20T13:15:43;6.10;99.90
16479;DHT22;8350;52.316;10.530;2023-12-20T13:18:17;6.10;99.90
16479;DHT22;8350;52.316;10.530;2023-12-20T13:20:44;6.00;99.90
16479;DHT22;8350;52.316;10.530;2023-12-20T13:23:12;6.00;99.90
16479;DHT22;8350;52.316;10.530;2023-12-20T13:25:41;5.90;99.90
16479;DHT22;8350;52.316;10.530;2023-12-20T13:28:08;5.90;99.90
16479;DHT22;8350;52.316;10.530;2023-12-20T13:30:35;5.90;99.90
16479;DHT22;8350;52.316;10.530;2023-12-20T13:33:02;6.00;99.90
16479;DHT22;8350;52.316;10.530;2023-12-20T13:35:30;6.00;99.90
16479;DHT22;8350;52.316;10.530;2023-12-20T13:37:57;6.00;99.90
16479;DHT22;8350;52.316;10.530;2023-12-20T13:40:24;5.90;99.90
16479;DHT22;8350;52.316;10.530;2023-12-20T13:42:51;5.80;99.90
16479;DHT22;8350;52.316;10.530;2023-12-20T13:45:23;5.70;99.90
16479;DHT22;8350;52.316;10.530;2023-12-20T13:47:51;5.70;99.90
16479;DHT22;8350;52.316;10.530;2023-12-20T13:50:18;5.70;99.90
16479;DHT22;8350;52.316;10.530;2023-12-20T13:52:46;5.70;99.90
16479;DHT22;8350;52.316;10.530;2023-12-20T13:55:13;5.70;99.90
16479;DHT22;8350;52.316;10.530;2023-12-20T13:57:40;5.60;99.90
16479;DHT22;8350;52.316;10.530;2023-12-20T14:00:09;5.60;99.90
16479;DHT22;8350;52.316;10.530;2023-12-20T14:02:40;5.60;99.90
16479;DHT22;8350;52.316;10.530;2023-12-20T14:05:08;5.50;99.90
16479;DHT22;8350;52.316;10.530;2023-12-20T14:07:35;5.60;99.90
16479;DHT22;8350;52.316;10.530;2023-12-20T14:10:04;5.60;99.90
16479;DHT22;8350;52.316;10.530;2023-12-20T14:12:32;5.60;99.90
16479;DHT22;8350;52.316;10.530;2023-12-20T14:15:02;5.50;99.90
16479;DHT22;8350;52.316;10.530;2023-12-20T14:17:29;5.60;99.90
16479;DHT22;8350;52.316;10.530;2023-12-20T14:19:57;5.60;99.90
16479;DHT22;8350;52.316;10.530;2023-12-20T14:22:24;5.60;99.90
16479;DHT22;8350;52.316;10.530;2023-12-20T14:24:51;5.60;99.90
16479;DHT22;8350;52.316;10.530;2023-12-20T14:27:19;5.60;99.90
16479;DHT22;8350;52.316;10.530;2023-12-20T14:29:49;5.60;99.90
16479;DHT22;8350;52.316;10.530;2023-12-20T14:32:16;5.70;99.90
16479;DHT22;8350;52.316;10.530;2023-12-20T14:34:43;5.60;99.90
16479;DHT22;8350;52.316;10.530;2023-12-20T14:37:10;5.60;99.90
16479;DHT22;8350;52.316;10.530;2023-12-20T14:39:37;5.70;99.90
16479;DHT22;8350;52.316;10.530;2023-12-20T14:42:06;5.70;99.90
16479;DHT22;8350;52.316;10.530;2023-12-20T14:44:38;5.70;99.90
16479;DHT22;8350;52.316;10.530;2023-12-20T14:47:05;5.70;99.90
16479;DHT22;8350;52.316;10.530;2023-12-20T14:49:35;5.70;99.90
16479;DHT22;8350;52.316;10.530;2023-12-20T14:52:03;5.70;99.90
16479;DHT22;8350;52.316;10.530;2023-12-20T14:54:30;5.70;99.90
16479;DHT22;8350;52.316;10.530;2023-12-20T14:56:57;5.70;99.90
16479;DHT22;8350;52.316;10.530;2023-12-20T14:59:24;5.80;99.90
16479;DHT22;8350;52.316;10.530;2023-12-20T15:01:53;5.80;99.90
16479;DHT22;8350;52.316;10.530;2023-12-20T15:04:20;5.80;99.90
16479;DHT22;8350;52.316;10.530;2023-12-20T15:06:54;5.90;99.90
16479;DHT22;8350;52.316;10.530;2023-12-20T15:09:21;5.90;99.90
16479;DHT22;8350;52.316;10.530;2023-12-20T15:11:48;5.90;99.90
16479;DHT22;8350;52.316;10.530;2023-12-20T15:14:15;5.90;99.90
16479;DHT22;8350;52.316;10.530;2023-12-20T15:16:45;5.90;99.90
16479;DHT22;8350;52.316;10.530;2023-12-20T15:19:14;5.90;99.90
16479;DHT22;8350;52.316;10.530;2023-12-20T15:21:42;5.90;99.90
16479;DHT22;8350;52.316;10.530;2023-12-20T15:24:11;5.90;99.90
16479;DHT22;8350;52.316;10.530;2023-12-20T15:26:42;5.90;99.90
16479;DHT22;8350;52.316;10.530;2023-12-20T15:29:15;5.90;99.90
16479;DHT22;8350;52.316;10.530;2023-12-20T15:31:43;5.90;99.90
16479;DHT22;8350;52.316;10.530;2023-12-20T15:34:10;5.90;99.90
16479;DHT22;8350;52.316;10.530;2023-12-20T15:36:40;5.90;99.90
16479;DHT22;8350;52.316;10.530;2023-12-20T15:39:07;5.90;99.90
16479;DHT22;8350;52.316;10.530;2023-12-20T15:41:37;6.00;99.90
16479;DHT22;8350;52.316;10.530;2023-12-20T15:44:06;5.90;99.90
16479;DHT22;8350;52.316;10.530;2023-12-20T15:46:33;6.00;99.90
16479;DHT22;8350;52.316;10.530;2023-12-20T15:49:00;5.90;99.90
16479;DHT22;8350;52.316;10.530;2023-12-20T15:51:27;6.00;99.90